Time,TemperatureF,DewpointF,PressureIn,WindDirection,WindDirectionDegrees,WindSpeedMPH,WindSpeedGustMPH,Humidity,HourlyPrecipIn,Conditions,Clouds,dailyrainin,SoftwareType,DateUTC
2013-04-02 00:04:00,51.1,44.2,30.09,South,180,2.5,2.5,77,0.00,,,0.00,WUHU216HW,2013-04-02 07:04:00,
2013-04-02 00:59:00,51.3,44.6,30.11,SSE,158,3.8,3.8,78,0.00,,,0.00,WUHU216HW,2013-04-02 07:59:00,
2013-04-02 01:04:00,51.3,44.6,30.11,SSE,158,3.8,3.8,78,0.00,,,0.00,WUHU216HW,2013-04-02 08:04:00,
2013-04-02 01:59:00,51.1,44.8,30.12,SW,225,1.8,1.8,79,0.00,,,0.00,WUHU216HW,2013-04-02 08:59:00,
2013-04-02 02:04:00,51.1,44.8,30.12,SSW,203,0.4,1.8,79,0.00,,,0.00,WUHU216HW,2013-04-02 09:04:00,
2013-04-02 02:09:00,51.1,44.8,30.12,SSW,203,1.3,3.4,79,0.00,,,0.00,WUHU216HW,2013-04-02 09:09:00,
2013-04-02 02:14:00,51.1,44.8,30.12,SSE,158,1.1,3.8,79,0.00,,,0.00,WUHU216HW,2013-04-02 09:14:00,
2013-04-02 02:19:00,51.1,44.8,30.12,South,180,1.3,3.8,79,0.00,,,0.00,WUHU216HW,2013-04-02 09:19:00,
2013-04-02 02:25:00,51.1,44.8,30.12,SE,135,0.7,3.1,79,0.00,,,0.00,WUHU216HW,2013-04-02 09:25:00,
2013-04-02 02:30:00,50.9,44.6,30.12,SSE,158,0.0,3.1,79,0.00,,,0.00,WUHU216HW,2013-04-02 09:30:00,
2013-04-02 02:35:00,50.9,44.6,30.12,SSW,203,0.4,2.7,79,0.00,,,0.00,WUHU216HW,2013-04-02 09:35:00,
2013-04-02 02:40:00,51.1,44.8,30.12,SE,135,1.1,2.7,79,0.00,,,0.00,WUHU216HW,2013-04-02 09:40:00,
2013-04-02 02:45:00,50.9,44.6,30.12,South,180,1.1,3.4,79,0.00,,,0.00,WUHU216HW,2013-04-02 09:45:00,
2013-04-02 02:50:00,50.9,45.0,30.12,SSE,158,3.8,3.8,80,0.00,,,0.00,WUHU216HW,2013-04-02 09:50:00,
2013-04-02 02:55:00,50.9,45.0,30.12,SE,135,0.9,4.0,80,0.00,,,0.00,WUHU216HW,2013-04-02 09:55:00,
2013-04-02 03:00:00,50.8,44.8,30.12,SSE,158,1.1,4.0,80,0.00,,,0.00,WUHU216HW,2013-04-02 10:00:00,
2013-04-02 03:05:00,50.8,44.5,30.12,SSE,158,0.0,3.6,79,0.00,,,0.00,WUHU216HW,2013-04-02 10:05:00,
2013-04-02 03:10:00,50.8,44.5,30.12,SSE,158,0.2,2.9,79,0.00,,,0.00,WUHU216HW,2013-04-02 10:10:00,
2013-04-02 03:15:00,50.8,44.5,30.12,SSE,158,0.2,1.8,79,0.00,,,0.00,WUHU216HW,2013-04-02 10:15:00,
2013-04-02 03:59:00,50.8,44.5,30.12,SSW,203,0.0,0.0,79,0.00,,,0.00,WUHU216HW,2013-04-02 10:59:00,
2013-04-02 04:04:00,50.8,44.5,30.12,SSW,203,1.1,2.5,79,0.00,,,0.00,WUHU216HW,2013-04-02 11:04:00,
2013-04-02 04:09:00,50.8,44.1,30.12,SSE,158,0.7,2.5,78,0.00,,,0.00,WUHU216HW,2013-04-02 11:09:00,
2013-04-02 04:14:00,50.8,44.1,30.12,SSE,158,0.7,1.1,78,0.00,,,0.00,WUHU216HW,2013-04-02 11:14:00,
2013-04-02 04:59:00,50.8,44.5,30.12,SSE,158,1.1,1.1,79,0.00,,,0.00,WUHU216HW,2013-04-02 11:59:00,
2013-04-02 05:04:00,50.8,44.5,30.13,SSW,203,0.0,1.1,79,0.00,,,0.00,WUHU216HW,2013-04-02 12:04:00,
2013-04-02 05:09:00,50.8,44.5,30.13,SSW,203,0.4,1.1,79,0.00,,,0.00,WUHU216HW,2013-04-02 12:09:00,
2013-04-02 05:14:00,50.8,44.5,30.13,SSW,203,0.0,0.4,79,0.00,,,0.00,WUHU216HW,2013-04-02 12:14:00,
2013-04-02 05:19:00,50.8,44.5,30.13,SSW,203,0.0,0.0,79,0.00,,,0.00,WUHU216HW,2013-04-02 12:19:00,
2013-04-02 05:24:00,50.8,44.5,30.13,SSW,203,0.0,0.0,79,0.00,,,0.00,WUHU216HW,2013-04-02 12:24:00,
2013-04-02 05:59:00,50.2,44.3,30.13,SSE,158,0.9,0.9,80,0.00,,,0.00,WUHU216HW,2013-04-02 12:59:00,
2013-04-02 06:04:00,50.2,44.3,30.13,SSE,158,0.9,0.9,80,0.00,,,0.00,WUHU216HW,2013-04-02 13:04:00,
2013-04-02 06:59:00,49.9,44.6,30.14,SW,225,0.0,0.0,82,0.00,,,0.00,WUHU216HW,2013-04-02 13:59:00,
2013-04-02 07:04:00,49.9,44.6,30.14,SW,225,0.0,0.0,82,0.00,,,0.00,WUHU216HW,2013-04-02 14:04:00,
2013-04-02 07:59:00,49.7,44.6,30.14,East,90,0.2,0.2,83,0.00,,,0.00,WUHU216HW,2013-04-02 14:59:00,
2013-04-02 08:04:00,49.7,44.6,30.14,East,90,0.2,0.2,83,0.00,,,0.00,WUHU216HW,2013-04-02 15:04:00,
2013-04-02 08:59:00,50.6,45.3,30.15,South,180,2.5,2.5,82,0.00,,,0.00,WUHU216HW,2013-04-02 15:59:00,
2013-04-02 09:04:00,50.8,45.5,30.15,South,180,1.8,2.5,82,0.00,,,0.00,WUHU216HW,2013-04-02 16:04:00,
2013-04-02 09:09:00,50.8,45.5,30.15,SE,135,0.7,2.5,82,0.00,,,0.00,WUHU216HW,2013-04-02 16:09:00,
2013-04-02 09:14:00,50.9,45.6,30.14,SSE,158,2.5,2.5,82,0.00,,,0.00,WUHU216HW,2013-04-02 16:14:00,
2013-04-02 09:19:00,50.9,45.6,30.14,SE,135,0.4,2.5,82,0.00,,,0.00,WUHU216HW,2013-04-02 16:19:00,
2013-04-02 09:24:00,51.3,46.0,30.14,South,180,0.9,2.5,82,0.00,,,0.00,WUHU216HW,2013-04-02 16:24:00,
2013-04-02 09:29:00,51.5,46.2,30.14,SSE,158,0.2,1.8,82,0.00,,,0.00,WUHU216HW,2013-04-02 16:29:00,
2013-04-02 09:35:00,51.5,46.2,30.14,SSE,158,1.8,1.8,82,0.00,,,0.00,WUHU216HW,2013-04-02 16:35:00,
2013-04-02 09:40:00,51.8,46.2,30.14,SSE,158,0.9,3.4,81,0.00,,,0.00,WUHU216HW,2013-04-02 16:40:00,
2013-04-02 09:45:00,52.2,46.5,30.14,South,180,0.4,3.4,81,0.00,,,0.00,WUHU216HW,2013-04-02 16:45:00,
2013-04-02 09:50:00,52.2,46.3,30.14,South,180,1.1,2.5,80,0.00,,,0.00,WUHU216HW,2013-04-02 16:50:00,
2013-04-02 09:55:00,52.4,46.4,30.14,ESE,113,1.8,4.7,80,0.00,,,0.00,WUHU216HW,2013-04-02 16:55:00,
2013-04-02 10:00:00,52.2,46.3,30.15,South,180,0.7,4.7,80,0.00,,,0.00,WUHU216HW,2013-04-02 17:00:00,
2013-04-02 10:05:00,52.2,46.3,30.14,East,90,0.7,2.2,80,0.00,,,0.00,WUHU216HW,2013-04-02 17:05:00,
2013-04-02 10:10:00,52.4,46.1,30.15,SE,135,0.7,2.5,79,0.00,,,0.00,WUHU216HW,2013-04-02 17:10:00,
2013-04-02 10:15:00,52.4,46.1,30.14,SE,135,0.7,2.5,79,0.00,,,0.00,WUHU216HW,2013-04-02 17:15:00,
2013-04-02 10:20:00,52.4,46.1,30.15,SSE,158,1.1,2.5,79,0.00,,,0.00,WUHU216HW,2013-04-02 17:20:00,
2013-04-02 10:25:00,52.4,46.1,30.15,SE,135,1.6,2.0,79,0.00,,,0.00,WUHU216HW,2013-04-02 17:25:00,
2013-04-02 10:30:00,52.4,46.1,30.15,SSE,158,4.7,4.7,79,0.00,,,0.00,WUHU216HW,2013-04-02 17:30:00,
2013-04-02 10:35:00,52.4,45.7,30.15,SSE,158,0.2,5.6,78,0.00,,,0.00,WUHU216HW,2013-04-02 17:35:00,
2013-04-02 10:40:00,52.6,45.9,30.14,WSW,248,0.4,5.6,78,0.00,,,0.00,WUHU216HW,2013-04-02 17:40:00,
2013-04-02 10:45:00,52.6,45.9,30.15,SSE,158,0.7,2.0,78,0.00,,,0.00,WUHU216HW,2013-04-02 17:45:00,
2013-04-02 10:50:00,52.6,45.9,30.15,SE,135,1.8,2.7,78,0.00,,,0.00,WUHU216HW,2013-04-02 17:50:00,
2013-04-02 10:56:00,52.6,45.9,30.15,South,180,1.6,4.3,78,0.00,,,0.00,WUHU216HW,2013-04-02 17:56:00,
2013-04-02 11:01:00,52.6,45.9,30.15,South,180,1.1,4.3,78,0.00,,,0.00,WUHU216HW,2013-04-02 18:01:00,
2013-04-02 11:06:00,52.7,46.1,30.15,NW,315,0.7,1.8,78,0.00,,,0.00,WUHU216HW,2013-04-02 18:06:00,
2013-04-02 11:11:00,52.9,46.3,30.15,East,90,0.7,1.8,78,0.00,,,0.00,WUHU216HW,2013-04-02 18:11:00,
2013-04-02 11:17:00,52.9,45.9,30.14,SSE,158,1.8,1.8,77,0.00,,,0.00,WUHU216HW,2013-04-02 18:17:00,
2013-04-02 11:22:00,53.1,46.1,30.15,SSE,158,0.2,3.4,77,0.00,,,0.00,WUHU216HW,2013-04-02 18:22:00,
2013-04-02 11:27:00,53.1,46.1,30.15,SSE,158,1.6,3.4,77,0.00,,,0.00,WUHU216HW,2013-04-02 18:27:00,
2013-04-02 11:32:00,53.1,46.1,30.15,SE,135,0.9,1.8,77,0.00,,,0.00,WUHU216HW,2013-04-02 18:32:00,
2013-04-02 11:37:00,53.3,46.3,30.15,East,90,0.0,1.6,77,0.00,,,0.00,WUHU216HW,2013-04-02 18:37:00,
2013-04-02 11:42:00,53.3,46.3,30.15,WSW,248,0.0,1.3,77,0.00,,,0.00,WUHU216HW,2013-04-02 18:42:00,
2013-04-02 11:47:00,53.3,46.3,30.15,East,90,0.0,1.3,77,0.00,,,0.00,WUHU216HW,2013-04-02 18:47:00,
2013-04-02 11:52:00,53.5,46.4,30.15,ESE,113,1.1,1.8,77,0.00,,,0.00,WUHU216HW,2013-04-02 18:52:00,
2013-04-02 11:57:00,53.3,46.3,30.14,ESE,113,0.7,2.0,77,0.00,,,0.00,WUHU216HW,2013-04-02 18:57:00,
2013-04-02 12:02:00,53.5,46.1,30.15,ESE,113,0.4,2.2,76,0.00,,,0.00,WUHU216HW,2013-04-02 19:02:00,
2013-04-02 12:07:00,53.3,45.9,30.14,ENE,68,1.3,2.7,76,0.00,,,0.00,WUHU216HW,2013-04-02 19:07:00,
2013-04-02 12:13:00,53.6,46.6,30.14,ESE,113,1.6,4.0,77,0.00,,,0.00,WUHU216HW,2013-04-02 19:13:00,
2013-04-02 12:18:00,54.0,47.0,30.14,East,90,1.8,4.0,77,0.00,,,0.00,WUHU216HW,2013-04-02 19:18:00,
2013-04-02 12:23:00,54.5,47.8,30.14,ESE,113,1.8,3.4,78,0.00,,,0.00,WUHU216HW,2013-04-02 19:23:00,
2013-04-02 12:28:00,54.5,47.4,30.14,ESE,113,2.5,3.4,77,0.00,,,0.00,WUHU216HW,2013-04-02 19:28:00,
2013-04-02 12:33:00,54.7,47.6,30.14,ENE,68,0.9,3.1,77,0.00,,,0.00,WUHU216HW,2013-04-02 19:33:00,
2013-04-02 12:38:00,54.7,47.6,30.14,SE,135,0.7,2.9,77,0.00,,,0.00,WUHU216HW,2013-04-02 19:38:00,
2013-04-02 12:43:00,55.1,48.0,30.14,East,90,2.7,3.1,77,0.00,,,0.00,WUHU216HW,2013-04-02 19:43:00,
2013-04-02 12:48:00,55.1,48.0,30.14,South,180,2.0,3.1,77,0.00,,,0.00,WUHU216HW,2013-04-02 19:48:00,
2013-04-02 12:53:00,55.3,48.2,30.14,East,90,1.6,3.8,77,0.00,,,0.00,WUHU216HW,2013-04-02 19:53:00,
2013-04-02 12:58:00,55.4,48.0,30.14,SSE,158,0.7,3.8,76,0.00,,,0.00,WUHU216HW,2013-04-02 19:58:00,
2013-04-02 13:04:00,55.4,48.0,30.14,ENE,68,2.0,2.5,76,0.00,,,0.00,WUHU216HW,2013-04-02 20:04:00,
2013-04-02 13:09:00,55.6,48.2,30.14,South,180,1.8,2.7,76,0.00,,,0.00,WUHU216HW,2013-04-02 20:09:00,
2013-04-02 13:14:00,55.8,48.3,30.14,ESE,113,2.0,4.9,76,0.00,,,0.00,WUHU216HW,2013-04-02 20:14:00,
2013-04-02 13:19:00,56.2,48.6,30.14,East,90,2.5,4.9,76,0.00,,,0.00,WUHU216HW,2013-04-02 20:19:00,
2013-04-02 13:24:00,56.3,48.5,30.14,SE,135,2.5,3.8,75,0.00,,,0.00,WUHU216HW,2013-04-02 20:24:00,
2013-04-02 13:29:00,56.3,48.5,30.14,South,180,0.4,3.8,75,0.00,,,0.00,WUHU216HW,2013-04-02 20:29:00,
2013-04-02 13:34:00,56.5,48.6,30.14,ESE,113,1.6,3.8,75,0.00,,,0.00,WUHU216HW,2013-04-02 20:34:00,
2013-04-02 13:39:00,56.5,48.2,30.14,East,90,1.3,2.5,74,0.00,,,0.00,WUHU216HW,2013-04-02 20:39:00,
2013-04-02 13:44:00,56.3,48.2,30.14,SSW,203,2.2,2.5,74,0.00,,,0.00,WUHU216HW,2013-04-02 20:44:00,
2013-04-02 13:49:00,56.3,48.2,30.14,East,90,1.8,3.4,74,0.00,,,0.00,WUHU216HW,2013-04-02 20:49:00,
2013-04-02 13:54:00,56.3,48.2,30.14,SE,135,2.2,4.0,74,0.00,,,0.00,WUHU216HW,2013-04-02 20:54:00,
2013-04-02 13:59:00,56.3,48.2,30.14,SSE,158,0.7,4.0,74,0.00,,,0.00,WUHU216HW,2013-04-02 20:59:00,
2013-04-02 14:05:00,56.7,48.4,30.14,ESE,113,1.8,3.6,74,0.00,,,0.00,WUHU216HW,2013-04-02 21:05:00,
2013-04-02 14:10:00,57.2,49.0,30.14,SSW,203,2.2,3.6,74,0.00,,,0.00,WUHU216HW,2013-04-02 21:10:00,
2013-04-02 14:15:00,57.4,48.8,30.14,South,180,2.5,3.1,73,0.00,,,0.00,WUHU216HW,2013-04-02 21:15:00,
2013-04-02 14:20:00,57.6,49.0,30.14,SE,135,3.6,5.4,73,0.00,,,0.00,WUHU216HW,2013-04-02 21:20:00,
2013-04-02 14:25:00,57.6,49.0,30.14,SSE,158,3.8,5.4,73,0.00,,,0.00,WUHU216HW,2013-04-02 21:25:00,
2013-04-02 14:30:00,57.4,48.4,30.14,SE,135,5.1,6.3,72,0.00,,,0.00,WUHU216HW,2013-04-02 21:30:00,
2013-04-02 14:35:00,57.2,48.2,30.14,SSE,158,1.3,6.3,72,0.00,,,0.00,WUHU216HW,2013-04-02 21:35:00,
2013-04-02 14:40:00,57.2,48.2,30.14,South,180,4.3,4.7,72,0.00,,,0.00,WUHU216HW,2013-04-02 21:40:00,
2013-04-02 14:45:00,57.2,48.2,30.14,SSW,203,0.4,4.3,72,0.00,,,0.00,WUHU216HW,2013-04-02 21:45:00,
2013-04-02 14:50:00,57.4,48.4,30.14,SSW,203,1.3,4.3,72,0.00,,,0.00,WUHU216HW,2013-04-02 21:50:00,
2013-04-02 14:55:00,57.4,48.4,30.14,East,90,3.4,3.8,72,0.00,,,0.00,WUHU216HW,2013-04-02 21:55:00,
2013-04-02 15:00:00,57.2,48.2,30.14,SE,135,3.4,5.4,72,0.00,,,0.00,WUHU216HW,2013-04-02 22:00:00,
2013-04-02 15:05:00,57.2,48.2,30.14,SSE,158,1.6,5.4,72,0.00,,,0.00,WUHU216HW,2013-04-02 22:05:00,
2013-04-02 15:10:00,57.1,48.1,30.14,SSE,158,3.4,5.4,72,0.00,,,0.00,WUHU216HW,2013-04-02 22:10:00,
2013-04-02 15:15:00,57.1,48.1,30.14,South,180,1.8,5.4,72,0.00,,,0.00,WUHU216HW,2013-04-02 22:15:00,
2013-04-02 15:20:00,57.1,48.1,30.14,SW,225,2.5,3.8,72,0.00,,,0.00,WUHU216HW,2013-04-02 22:20:00,
2013-04-02 15:26:00,57.1,48.1,30.14,WSW,248,0.2,3.6,72,0.00,,,0.00,WUHU216HW,2013-04-02 22:26:00,
2013-04-02 15:31:00,56.9,47.9,30.14,SE,135,3.8,4.7,72,0.00,,,0.00,WUHU216HW,2013-04-02 22:31:00,
2013-04-02 15:36:00,56.9,47.9,30.14,SE,135,4.5,4.7,72,0.00,,,0.00,WUHU216HW,2013-04-02 22:36:00,
2013-04-02 15:41:00,56.7,48.1,30.14,SE,135,1.1,4.5,73,0.00,,,0.00,WUHU216HW,2013-04-02 22:41:00,
2013-04-02 15:46:00,56.9,48.2,30.14,SSE,158,0.2,4.3,73,0.00,,,0.00,WUHU216HW,2013-04-02 22:46:00,
2013-04-02 15:51:00,56.9,48.2,30.14,SSE,158,3.6,3.6,73,0.00,,,0.00,WUHU216HW,2013-04-02 22:51:00,
2013-04-02 15:56:00,56.9,48.2,30.13,SE,135,0.0,4.3,73,0.00,,,0.00,WUHU216HW,2013-04-02 22:56:00,
2013-04-02 16:01:00,56.9,47.9,30.14,SE,135,1.8,4.9,72,0.00,,,0.00,WUHU216HW,2013-04-02 23:01:00,
2013-04-02 16:07:00,56.9,47.9,30.14,South,180,3.4,4.9,72,0.00,,,0.00,WUHU216HW,2013-04-02 23:07:00,
2013-04-02 16:12:00,57.1,48.1,30.14,SSE,158,2.5,4.5,72,0.00,,,0.00,WUHU216HW,2013-04-02 23:12:00,
2013-04-02 16:17:00,57.1,48.1,30.13,SSE,158,2.7,5.4,72,0.00,,,0.00,WUHU216HW,2013-04-02 23:17:00,
2013-04-02 16:22:00,57.1,48.1,30.14,ESE,113,2.5,5.4,72,0.00,,,0.00,WUHU216HW,2013-04-02 23:22:00,
2013-04-02 16:27:00,57.4,48.4,30.13,ESE,113,3.4,4.0,72,0.00,,,0.00,WUHU216HW,2013-04-02 23:27:00,
2013-04-02 16:32:00,57.6,48.6,30.13,ESE,113,0.9,4.0,72,0.00,,,0.00,WUHU216HW,2013-04-02 23:32:00,
2013-04-02 16:37:00,57.8,48.8,30.13,ENE,68,0.4,3.8,72,0.00,,,0.00,WUHU216HW,2013-04-02 23:37:00,
2013-04-02 16:42:00,58.1,49.1,30.13,South,180,2.7,3.8,72,0.00,,,0.00,WUHU216HW,2013-04-02 23:42:00,
2013-04-02 16:48:00,58.1,48.8,30.13,ENE,68,0.9,3.8,71,0.00,,,0.00,WUHU216HW,2013-04-02 23:48:00,
2013-04-02 16:53:00,58.1,48.8,30.13,SE,135,2.0,5.4,71,0.00,,,0.00,WUHU216HW,2013-04-02 23:53:00,
2013-04-02 16:58:00,58.0,48.6,30.13,SE,135,2.7,5.4,71,0.00,,,0.00,WUHU216HW,2013-04-02 23:58:00,
2013-04-02 17:03:00,58.0,48.6,30.13,South,180,1.1,3.8,71,0.00,,,0.00,WUHU216HW,2013-04-03 00:03:00,
2013-04-02 17:08:00,57.8,48.4,30.13,ESE,113,1.8,2.9,71,0.00,,,0.00,WUHU216HW,2013-04-03 00:08:00,
2013-04-02 17:13:00,57.8,48.4,30.13,SE,135,2.0,5.4,71,0.00,,,0.00,WUHU216HW,2013-04-03 00:13:00,
2013-04-02 17:18:00,57.6,48.2,30.12,SSE,158,2.0,5.4,71,0.00,,,0.00,WUHU216HW,2013-04-03 00:18:00,
2013-04-02 17:23:00,57.2,47.9,30.13,ESE,113,1.8,2.5,71,0.00,,,0.00,WUHU216HW,2013-04-03 00:23:00,
2013-04-02 17:28:00,57.1,48.1,30.12,SE,135,2.5,3.1,72,0.00,,,0.00,WUHU216HW,2013-04-03 00:28:00,
2013-04-02 17:33:00,56.9,47.9,30.12,South,180,1.1,3.1,72,0.00,,,0.00,WUHU216HW,2013-04-03 00:33:00,
2013-04-02 17:38:00,56.9,47.9,30.12,East,90,2.7,2.7,72,0.00,,,0.00,WUHU216HW,2013-04-03 00:38:00,
2013-04-02 17:44:00,56.9,47.9,30.12,SSE,158,2.7,2.9,72,0.00,,,0.00,WUHU216HW,2013-04-03 00:44:00,
2013-04-02 17:49:00,57.1,48.1,30.12,SE,135,1.6,4.0,72,0.00,,,0.00,WUHU216HW,2013-04-03 00:49:00,
2013-04-02 17:54:00,57.1,48.1,30.12,SE,135,2.0,4.0,72,0.00,,,0.00,WUHU216HW,2013-04-03 00:54:00,
2013-04-02 17:59:00,57.1,48.1,30.12,ESE,113,3.4,3.4,72,0.00,,,0.00,WUHU216HW,2013-04-03 00:59:00,
2013-04-02 18:04:00,56.9,47.9,30.12,South,180,2.5,3.6,72,0.00,,,0.00,WUHU216HW,2013-04-03 01:04:00,
2013-04-02 18:09:00,56.7,47.7,30.12,South,180,1.3,3.6,72,0.00,,,0.00,WUHU216HW,2013-04-03 01:09:00,
2013-04-02 18:14:00,56.7,48.1,30.12,SSW,203,1.1,2.5,73,0.00,,,0.00,WUHU216HW,2013-04-03 01:14:00,
2013-04-02 18:19:00,56.5,48.0,30.12,SE,135,1.6,1.8,73,0.00,,,0.00,WUHU216HW,2013-04-03 01:19:00,
2013-04-02 18:24:00,56.5,48.0,30.11,ESE,113,1.3,1.8,73,0.00,,,0.00,WUHU216HW,2013-04-03 01:24:00,
2013-04-02 18:30:00,56.3,47.8,30.11,SE,135,0.0,2.5,73,0.00,,,0.00,WUHU216HW,2013-04-03 01:30:00,
2013-04-02 18:35:00,56.2,47.6,30.11,South,180,0.0,2.5,73,0.00,,,0.00,WUHU216HW,2013-04-03 01:35:00,
2013-04-02 18:40:00,56.2,47.6,30.11,South,180,0.2,2.5,73,0.00,,,0.00,WUHU216HW,2013-04-03 01:40:00,
2013-04-02 18:45:00,56.0,47.4,30.11,SSE,158,1.1,2.5,73,0.00,,,0.00,WUHU216HW,2013-04-03 01:45:00,
2013-04-02 18:50:00,56.0,47.4,30.11,ESE,113,1.1,2.0,73,0.00,,,0.00,WUHU216HW,2013-04-03 01:50:00,
2013-04-02 18:55:00,55.8,47.3,30.11,SE,135,0.4,2.0,73,0.00,,,0.00,WUHU216HW,2013-04-03 01:55:00,
2013-04-02 19:00:00,55.8,47.3,30.11,ESE,113,1.1,1.8,73,0.00,,,0.00,WUHU216HW,2013-04-03 02:00:00,
2013-04-02 19:05:00,55.6,47.4,30.10,ESE,113,0.0,1.8,74,0.00,,,0.00,WUHU216HW,2013-04-03 02:05:00,
2013-04-02 19:10:00,55.6,47.4,30.10,SE,135,0.7,0.9,74,0.00,,,0.00,WUHU216HW,2013-04-03 02:10:00,
2013-04-02 19:15:00,55.4,47.3,30.10,South,180,0.2,1.8,74,0.00,,,0.00,WUHU216HW,2013-04-03 02:15:00,
2013-04-02 19:20:00,55.4,47.3,30.10,South,180,0.0,1.8,74,0.00,,,0.00,WUHU216HW,2013-04-03 02:20:00,
2013-04-02 19:26:00,55.4,47.3,30.10,SSE,158,0.7,1.1,74,0.00,,,0.00,WUHU216HW,2013-04-03 02:26:00,
2013-04-02 19:31:00,55.3,47.4,30.10,SSE,158,0.0,1.6,75,0.00,,,0.00,WUHU216HW,2013-04-03 02:31:00,
2013-04-02 19:36:00,55.3,47.4,30.10,SSE,158,0.0,1.6,75,0.00,,,0.00,WUHU216HW,2013-04-03 02:36:00,
2013-04-02 19:41:00,55.1,47.3,30.10,SSW,203,0.2,1.1,75,0.00,,,0.00,WUHU216HW,2013-04-03 02:41:00,
2013-04-02 19:46:00,55.1,47.3,30.10,SE,135,1.1,1.1,75,0.00,,,0.00,WUHU216HW,2013-04-03 02:46:00,
2013-04-02 19:51:00,55.1,47.3,30.10,SE,135,1.1,1.1,75,0.00,,,0.00,WUHU216HW,2013-04-03 02:51:00,
2013-04-02 19:59:00,54.7,47.3,30.10,SSE,158,0.0,0.0,76,0.00,,,0.00,WUHU216HW,2013-04-03 02:59:00,
2013-04-02 20:04:00,54.7,47.3,30.10,SSE,158,0.0,0.0,76,0.00,,,0.00,WUHU216HW,2013-04-03 03:04:00,
2013-04-02 20:59:00,54.0,47.0,30.12,SSE,158,0.0,0.0,77,0.00,,,0.00,WUHU216HW,2013-04-03 03:59:00,
2013-04-02 21:00:00,54.0,47.0,30.12,SSE,158,0.0,0.0,77,0.00,,,0.00,WUHU216HW,2013-04-03 04:00:00,
2013-04-02 21:06:00,54.0,47.0,30.13,SSE,158,0.2,1.1,77,0.00,,,0.00,WUHU216HW,2013-04-03 04:06:00,
2013-04-02 21:11:00,54.0,47.0,30.13,South,180,0.2,1.1,77,0.00,,,0.00,WUHU216HW,2013-04-03 04:11:00,
2013-04-02 21:16:00,53.8,46.8,30.13,SSE,158,0.4,0.7,77,0.00,,,0.00,WUHU216HW,2013-04-03 04:16:00,
2013-04-02 21:21:00,53.8,46.8,30.13,South,180,0.0,0.7,77,0.00,,,0.00,WUHU216HW,2013-04-03 04:21:00,
2013-04-02 21:26:00,53.8,46.8,30.12,South,180,0.2,0.7,77,0.00,,,0.00,WUHU216HW,2013-04-03 04:26:00,
2013-04-02 21:32:00,53.8,46.8,30.13,South,180,0.2,0.7,77,0.00,,,0.00,WUHU216HW,2013-04-03 04:32:00,
2013-04-02 21:37:00,53.6,47.0,30.12,South,180,0.4,1.1,78,0.00,,,0.00,WUHU216HW,2013-04-03 04:37:00,
2013-04-02 21:42:00,53.6,47.0,30.12,SSE,158,0.7,1.1,78,0.00,,,0.00,WUHU216HW,2013-04-03 04:42:00,
2013-04-02 21:47:00,53.6,47.0,30.12,SSE,158,0.4,1.6,78,0.00,,,0.00,WUHU216HW,2013-04-03 04:47:00,
2013-04-02 21:52:00,53.5,46.8,30.12,SSE,158,1.1,2.2,78,0.00,,,0.00,WUHU216HW,2013-04-03 04:52:00,
2013-04-02 21:57:00,53.5,46.8,30.13,SE,135,1.6,2.2,78,0.00,,,0.00,WUHU216HW,2013-04-03 04:57:00,
2013-04-02 22:02:00,53.5,46.8,30.13,South,180,1.6,2.2,78,0.00,,,0.00,WUHU216HW,2013-04-03 05:02:00,
2013-04-02 22:07:00,53.3,46.6,30.13,SSE,158,0.4,2.0,78,0.00,,,0.00,WUHU216HW,2013-04-03 05:07:00,
2013-04-02 22:12:00,53.3,46.6,30.13,SSE,158,0.4,1.1,78,0.00,,,0.00,WUHU216HW,2013-04-03 05:12:00,
2013-04-02 22:17:00,53.3,46.6,30.13,SSE,158,0.4,0.4,78,0.00,,,0.00,WUHU216HW,2013-04-03 05:17:00,
2013-04-02 22:59:00,52.9,46.6,30.13,SSW,203,0.0,0.0,79,0.00,,,0.00,WUHU216HW,2013-04-03 05:59:00,
2013-04-02 23:04:00,52.9,46.6,30.13,SSW,203,0.0,0.0,79,0.00,,,0.00,WUHU216HW,2013-04-03 06:04:00,
2013-04-02 23:59:00,51.8,45.9,30.12,SW,225,0.0,0.0,80,0.00,,,0.00,WUHU216HW,2013-04-03 06:59:00,